sensor_id;sensor_type;location;lat;lon;timestamp;temperature;humidity
20598;DHT22;10457;48.770;11.446;2023-03-31T00:05:01;6.80;99.90
20598;DHT22;10457;48.770;11.446;2023-03-31T00:10:23;6.70;99.90
20598;DHT22;10457;48.770;11.446;2023-03-31T00:15:44;6.60;99.90
20598;DHT22;10457;48.770;11.446;2023-03-31T00:21:09;6.60;99.90
20598;DHT22;10457;48.770;11.446;2023-03-31T00:26:34;6.60;99.90
20598;DHT22;10457;48.770;11.446;2023-03-31T00:31:56;6.50;99.90
20598;DHT22;10457;48.770;11.446;2023-03-31T00:37:19;6.40;99.90
20598;DHT22;10457;48.770;11.446;2023-03-31T00:42:43;6.40;99.90
20598;DHT22;10457;48.770;11.446;2023-03-31T00:48:10;6.40;99.90
20598;DHT22;10457;48.770;11.446;2023-03-31T00:53:37;6.40;99.90
20598;DHT22;10457;48.770;11.446;2023-03-31T00:59:02;6.20;99.90
20598;DHT22;10457;48.770;11.446;2023-03-31T01:04:29;6.10;99.90
20598;DHT22;10457;48.770;11.446;2023-03-31T01:09:57;6.10;99.90
20598;DHT22;10457;48.770;11.446;2023-03-31T01:15:20;6.20;99.90
20598;DHT22;10457;48.770;11.446;2023-03-31T01:20:50;6.10;99.90
20598;DHT22;10457;48.770;11.446;2023-03-31T01:26:43;6.20;99.90
20598;DHT22;10457;48.770;11.446;2023-03-31T01:32:31;6.30;99.90
20598;DHT22;10457;48.770;11.446;2023-03-31T01:38:51;6.20;99.90
20598;DHT22;10457;48.770;11.446;2023-03-31T01:44:59;6.10;99.90
20598;DHT22;10457;48.770;11.446;2023-03-31T01:50:27;6.10;99.90
20598;DHT22;10457;48.770;11.446;2023-03-31T01:55:58;6.10;99.90
20598;DHT22;10457;48.770;11.446;2023-03-31T02:01:27;6.10;99.90
20598;DHT22;10457;48.770;11.446;2023-03-31T02:06:56;6.20;99.90
20598;DHT22;10457;48.770;11.446;2023-03-31T02:12:20;6.30;99.90
20598;DHT22;10457;48.770;11.446;2023-03-31T02:17:46;6.30;99.90
20598;DHT22;10457;48.770;11.446;2023-03-31T02:23:12;6.40;99.90
20598;DHT22;10457;48.770;11.446;2023-03-31T02:28:34;6.40;99.90
20598;DHT22;10457;48.770;11.446;2023-03-31T02:33:59;6.40;99.90
20598;DHT22;10457;48.770;11.446;2023-03-31T02:39:24;6.50;99.90
20598;DHT22;10457;48.770;11.446;2023-03-31T02:44:48;6.50;99.90
20598;DHT22;10457;48.770;11.446;2023-03-31T02:50:11;6.50;99.90
20598;DHT22;10457;48.770;11.446;2023-03-31T02:55:52;6.50;99.90
20598;DHT22;10457;48.770;11.446;2023-03-31T03:01:35;6.50;99.90
20598;DHT22;10457;48.770;11.446;2023-03-31T03:07:19;6.60;99.90
20598;DHT22;10457;48.770;11.446;2023-03-31T03:12:51;6.60;99.90
20598;DHT22;10457;48.770;11.446;2023-03-31T03:18:16;6.60;99.90
20598;DHT22;10457;48.770;11.446;2023-03-31T03:23:39;6.80;99.90
20598;DHT22;10457;48.770;11.446;2023-03-31T03:29:00;6.80;99.90
20598;DHT22;10457;48.770;11.446;2023-03-31T03:34:22;6.80;99.90
20598;DHT22;10457;48.770;11.446;2023-03-31T03:39:50;7.00;99.90
20598;DHT22;10457;48.770;11.446;2023-03-31T03:45:19;6.90;99.90
20598;DHT22;10457;48.770;11.446;2023-03-31T03:51:15;7.00;99.90
20598;DHT22;10457;48.770;11.446;2023-03-31T03:56:38;7.20;99.90
20598;DHT22;10457;48.770;11.446;2023-03-31T04:02:00;7.30;99.90
20598;DHT22;10457;48.770;11.446;2023-03-31T04:07:22;7.40;99.90
20598;DHT22;10457;48.770;11.446;2023-03-31T04:12:44;7.30;99.90
20598;DHT22;10457;48.770;11.446;2023-03-31T04:18:06;7.30;99.90
20598;DHT22;10457;48.770;11.446;2023-03-31T04:23:30;7.50;99.90
20598;DHT22;10457;48.770;11.446;2023-03-31T04:28:53;7.70;99.90
20598;DHT22;10457;48.770;11.446;2023-03-31T04:34:17;7.80;99.90
20598;DHT22;10457;48.770;11.446;2023-03-31T04:39:45;7.80;99.90
20598;DHT22;10457;48.770;11.446;2023-03-31T04:45:11;7.90;99.90
20598;DHT22;10457;48.770;11.446;2023-03-31T04:50:33;7.80;99.90
20598;DHT22;10457;48.770;11.446;2023-03-31T04:55:54;7.90;99.90
20598;DHT22;10457;48.770;11.446;2023-03-31T05:01:17;7.90;99.90
20598;DHT22;10457;48.770;11.446;2023-03-31T05:06:39;7.90;99.90
20598;DHT22;10457;48.770;11.446;2023-03-31T05:12:00;8.00;99.90
20598;DHT22;10457;48.770;11.446;2023-03-31T05:17:23;8.10;99.90
20598;DHT22;10457;48.770;11.446;2023-03-31T05:22:45;8.20;99.90
20598;DHT22;10457;48.770;11.446;2023-03-31T05:28:07;8.30;99.90
20598;DHT22;10457;48.770;11.446;2023-03-31T05:33:31;8.50;99.90
20598;DHT22;10457;48.770;11.446;2023-03-31T05:38:53;8.40;99.90
20598;DHT22;10457;48.770;11.446;2023-03-31T05:44:15;8.50;99.90
20598;DHT22;10457;48.770;11.446;2023-03-31T05:49:37;8.50;99.90
20598;DHT22;10457;48.770;11.446;2023-03-31T05:54:59;8.70;99.90
20598;DHT22;10457;48.770;11.446;2023-03-31T06:00:21;8.70;99.90
20598;DHT22;10457;48.770;11.446;2023-03-31T06:05:47;8.70;99.90
20598;DHT22;10457;48.770;11.446;2023-03-31T06:11:14;9.00;99.90
20598;DHT22;10457;48.770;11.446;2023-03-31T06:16:38;9.30;99.90
20598;DHT22;10457;48.770;11.446;2023-03-31T06:22:01;9.30;99.90
20598;DHT22;10457;48.770;11.446;2023-03-31T06:27:23;9.40;99.90
20598;DHT22;10457;48.770;11.446;2023-03-31T06:32:44;9.30;99.90
20598;DHT22;10457;48.770;11.446;2023-03-31T06:38:07;9.20;99.90
20598;DHT22;10457;48.770;11.446;2023-03-31T06:43:29;9.20;99.90
20598;DHT22;10457;48.770;11.446;2023-03-31T06:48:52;9.20;99.90
20598;DHT22;10457;48.770;11.446;2023-03-31T06:54:15;9.20;99.90
20598;DHT22;10457;48.770;11.446;2023-03-31T06:59:36;9.10;99.90
20598;DHT22;10457;48.770;11.446;2023-03-31T07:04:58;9.20;99.90
20598;DHT22;10457;48.770;11.446;2023-03-31T07:10:21;9.10;99.90
20598;DHT22;10457;48.770;11.446;2023-03-31T07:15:46;9.00;99.90
20598;DHT22;10457;48.770;11.446;2023-03-31T07:21:08;9.00;99.90
20598;DHT22;10457;48.770;11.446;2023-03-31T07:26:31;9.10;99.90
20598;DHT22;10457;48.770;11.446;2023-03-31T07:31:52;9.00;99.90
20598;DHT22;10457;48.770;11.446;2023-03-31T07:37:17;8.80;99.90
20598;DHT22;10457;48.770;11.446;2023-03-31T07:42:42;8.80;99.90
20598;DHT22;10457;48.770;11.446;2023-03-31T07:48:06;8.80;99.90
20598;DHT22;10457;48.770;11.446;2023-03-31T07:53:27;8.90;99.90
20598;DHT22;10457;48.770;11.446;2023-03-31T07:58:50;8.90;99.90
20598;DHT22;10457;48.770;11.446;2023-03-31T08:04:12;8.90;99.90
20598;DHT22;10457;48.770;11.446;2023-03-31T08:09:34;8.90;99.90
20598;DHT22;10457;48.770;11.446;2023-03-31T08:14:56;9.00;99.90
20598;DHT22;10457;48.770;11.446;2023-03-31T08:20:18;9.00;99.90
20598;DHT22;10457;48.770;11.446;2023-03-31T08:25:39;9.20;99.90
20598;DHT22;10457;48.770;11.446;2023-03-31T08:31:04;9.40;99.90
20598;DHT22;10457;48.770;11.446;2023-03-31T08:36:25;9.40;99.90
20598;DHT22;10457;48.770;11.446;2023-03-31T08:41:53;9.40;99.90
20598;DHT22;10457;48.770;11.446;2023-03-31T08:47:21;9.50;99.90
20598;DHT22;10457;48.770;11.446;2023-03-31T08:52:46;9.50;99.90
20598;DHT22;10457;48.770;11.446;2023-03-31T08:58:17;9.60;99.90
20598;DHT22;10457;48.770;11.446;2023-03-31T09:03:55;9.70;99.90
20598;DHT22;10457;48.770;11.446;2023-03-31T09:09:42;9.80;99.90
20598;DHT22;10457;48.770;11.446;2023-03-31T09:15:09;10.20;99.90
20598;DHT22;10457;48.770;11.446;2023-03-31T09:20:36;10.50;99.90
20598;DHT22;10457;48.770;11.446;2023-03-31T09:38:14;11.20;99.90
20598;DHT22;10457;48.770;11.446;2023-03-31T09:43:36;12.00;99.90
20598;DHT22;10457;48.770;11.446;2023-03-31T09:49:02;13.70;92.90
20598;DHT22;10457;48.770;11.446;2023-03-31T09:54:33;14.70;85.60
20598;DHT22;10457;48.770;11.446;2023-03-31T10:00:02;15.90;76.20
20598;DHT22;10457;48.770;11.446;2023-03-31T10:05:34;16.80;70.70
20598;DHT22;10457;48.770;11.446;2023-03-31T10:11:08;17.10;69.30
20598;DHT22;10457;48.770;11.446;2023-03-31T10:16:32;18.20;62.00
20598;DHT22;10457;48.770;11.446;2023-03-31T10:27:45;18.70;57.50
20598;DHT22;10457;48.770;11.446;2023-03-31T10:33:13;18.30;56.00
20598;DHT22;10457;48.770;11.446;2023-03-31T10:38:38;18.70;58.00
20598;DHT22;10457;48.770;11.446;2023-03-31T10:44:05;19.30;53.30
20598;DHT22;10457;48.770;11.446;2023-03-31T10:49:26;20.40;51.20
20598;DHT22;10457;48.770;11.446;2023-03-31T10:54:50;19.30;51.80
20598;DHT22;10457;48.770;11.446;2023-03-31T11:00:23;20.60;50.00
20598;DHT22;10457;48.770;11.446;2023-03-31T11:05:48;20.00;50.50
20598;DHT22;10457;48.770;11.446;2023-03-31T11:11:28;18.60;53.30
20598;DHT22;10457;48.770;11.446;2023-03-31T11:16:59;17.90;53.70
20598;DHT22;10457;48.770;11.446;2023-03-31T11:22:29;18.10;53.10
20598;DHT22;10457;48.770;11.446;2023-03-31T11:40:41;16.70;57.20
20598;DHT22;10457;48.770;11.446;2023-03-31T11:46:14;16.10;58.50
20598;DHT22;10457;48.770;11.446;2023-03-31T11:51:41;16.20;57.00
20598;DHT22;10457;48.770;11.446;2023-03-31T11:57:11;17.60;50.30
20598;DHT22;10457;48.770;11.446;2023-03-31T12:02:39;19.10;47.90
20598;DHT22;10457;48.770;11.446;2023-03-31T12:08:07;22.30;40.70
20598;DHT22;10457;48.770;11.446;2023-03-31T12:13:42;23.40;38.10
20598;DHT22;10457;48.770;11.446;2023-03-31T12:19:10;23.00;36.70
20598;DHT22;10457;48.770;11.446;2023-03-31T12:24:35;24.40;35.00
20598;DHT22;10457;48.770;11.446;2023-03-31T12:30:01;23.60;35.20
20598;DHT22;10457;48.770;11.446;2023-03-31T12:35:26;21.00;37.20
20598;DHT22;10457;48.770;11.446;2023-03-31T12:40:57;23.20;37.00
20598;DHT22;10457;48.770;11.446;2023-03-31T12:46:41;25.00;32.30
20598;DHT22;10457;48.770;11.446;2023-03-31T12:52:17;20.40;38.50
20598;DHT22;10457;48.770;11.446;2023-03-31T12:57:45;18.40;43.80
20598;DHT22;10457;48.770;11.446;2023-03-31T13:09:39;16.60;47.60
20598;DHT22;10457;48.770;11.446;2023-03-31T13:15:03;16.20;48.20
20598;DHT22;10457;48.770;11.446;2023-03-31T13:20:35;14.10;58.80
20598;DHT22;10457;48.770;11.446;2023-03-31T13:25:58;12.10;72.70
20598;DHT22;10457;48.770;11.446;2023-03-31T13:31:20;11.80;73.70
20598;DHT22;10457;48.770;11.446;2023-03-31T13:36:57;13.20;68.40
20598;DHT22;10457;48.770;11.446;2023-03-31T13:48:43;13.30;64.30
20598;DHT22;10457;48.770;11.446;2023-03-31T14:00:36;16.00;57.00
20598;DHT22;10457;48.770;11.446;2023-03-31T14:06:05;17.10;52.30
20598;DHT22;10457;48.770;11.446;2023-03-31T14:11:33;16.50;55.30
20598;DHT22;10457;48.770;11.446;2023-03-31T14:16:56;15.80;55.60
20598;DHT22;10457;48.770;11.446;2023-03-31T14:22:28;15.80;53.60
20598;DHT22;10457;48.770;11.446;2023-03-31T14:28:09;15.90;51.90
20598;DHT22;10457;48.770;11.446;2023-03-31T14:33:50;15.70;50.30
20598;DHT22;10457;48.770;11.446;2023-03-31T14:39:23;15.90;49.10
20598;DHT22;10457;48.770;11.446;2023-03-31T14:44:54;15.50;48.10
20598;DHT22;10457;48.770;11.446;2023-03-31T14:50:17;14.80;50.40
20598;DHT22;10457;48.770;11.446;2023-03-31T14:55:39;15.20;48.60
20598;DHT22;10457;48.770;11.446;2023-03-31T15:01:04;14.90;49.30
20598;DHT22;10457;48.770;11.446;2023-03-31T15:06:28;14.90;50.10
20598;DHT22;10457;48.770;11.446;2023-03-31T15:11:54;15.10;49.00
20598;DHT22;10457;48.770;11.446;2023-03-31T15:17:21;15.10;49.10
20598;DHT22;10457;48.770;11.446;2023-03-31T15:22:44;15.00;49.70
20598;DHT22;10457;48.770;11.446;2023-03-31T15:28:10;15.10;50.50
20598;DHT22;10457;48.770;11.446;2023-03-31T15:33:35;15.00;50.60
20598;DHT22;10457;48.770;11.446;2023-03-31T15:39:00;14.90;49.80
20598;DHT22;10457;48.770;11.446;2023-03-31T15:44:37;14.50;51.60
20598;DHT22;10457;48.770;11.446;2023-03-31T15:50:11;14.10;55.90
20598;DHT22;10457;48.770;11.446;2023-03-31T15:55:40;13.90;60.00
20598;DHT22;10457;48.770;11.446;2023-03-31T16:01:02;13.60;60.70
20598;DHT22;10457;48.770;11.446;2023-03-31T16:06:34;12.90;68.20
20598;DHT22;10457;48.770;11.446;2023-03-31T16:12:04;11.60;79.90
20598;DHT22;10457;48.770;11.446;2023-03-31T16:17:35;11.20;79.80
20598;DHT22;10457;48.770;11.446;2023-03-31T16:23:00;11.10;80.30
20598;DHT22;10457;48.770;11.446;2023-03-31T16:28:24;11.20;78.70
20598;DHT22;10457;48.770;11.446;2023-03-31T16:33:54;11.20;77.30
20598;DHT22;10457;48.770;11.446;2023-03-31T16:39:17;11.20;78.70
20598;DHT22;10457;48.770;11.446;2023-03-31T16:44:38;11.00;79.20
20598;DHT22;10457;48.770;11.446;2023-03-31T16:50:00;11.00;79.00
20598;DHT22;10457;48.770;11.446;2023-03-31T16:55:27;11.00;76.90
20598;DHT22;10457;48.770;11.446;2023-03-31T17:00:50;11.00;77.20
20598;DHT22;10457;48.770;11.446;2023-03-31T17:06:12;11.00;77.10
20598;DHT22;10457;48.770;11.446;2023-03-31T17:11:35;11.00;75.70
20598;DHT22;10457;48.770;11.446;2023-03-31T17:16:57;11.00;74.40
20598;DHT22;10457;48.770;11.446;2023-03-31T17:22:18;10.90;75.90
20598;DHT22;10457;48.770;11.446;2023-03-31T17:27:41;10.90;74.70
20598;DHT22;10457;48.770;11.446;2023-03-31T17:33:03;10.80;75.20
20598;DHT22;10457;48.770;11.446;2023-03-31T17:38:25;10.80;73.20
20598;DHT22;10457;48.770;11.446;2023-03-31T17:43:48;10.70;72.20
20598;DHT22;10457;48.770;11.446;2023-03-31T17:49:10;10.70;71.30
20598;DHT22;10457;48.770;11.446;2023-03-31T17:54:32;10.70;70.20
20598;DHT22;10457;48.770;11.446;2023-03-31T17:59:55;10.70;69.20
20598;DHT22;10457;48.770;11.446;2023-03-31T18:05:18;10.60;69.00
20598;DHT22;10457;48.770;11.446;2023-03-31T18:10:40;10.60;69.20
20598;DHT22;10457;48.770;11.446;2023-03-31T18:16:05;10.40;69.90
20598;DHT22;10457;48.770;11.446;2023-03-31T18:21:28;10.50;70.00
20598;DHT22;10457;48.770;11.446;2023-03-31T18:26:49;10.40;70.60
20598;DHT22;10457;48.770;11.446;2023-03-31T18:32:12;10.40;71.10
20598;DHT22;10457;48.770;11.446;2023-03-31T18:37:35;10.30;72.10
20598;DHT22;10457;48.770;11.446;2023-03-31T18:42:56;10.30;73.80
20598;DHT22;10457;48.770;11.446;2023-03-31T18:48:20;10.20;75.30
20598;DHT22;10457;48.770;11.446;2023-03-31T18:53:42;10.00;76.70
20598;DHT22;10457;48.770;11.446;2023-03-31T18:59:04;9.90;78.20
20598;DHT22;10457;48.770;11.446;2023-03-31T19:04:27;9.80;78.10
20598;DHT22;10457;48.770;11.446;2023-03-31T19:09:49;9.80;79.30
20598;DHT22;10457;48.770;11.446;2023-03-31T19:15:10;9.80;78.70
20598;DHT22;10457;48.770;11.446;2023-03-31T19:20:34;9.70;78.80
20598;DHT22;10457;48.770;11.446;2023-03-31T19:25:56;9.70;79.00
20598;DHT22;10457;48.770;11.446;2023-03-31T19:31:18;9.60;79.20
20598;DHT22;10457;48.770;11.446;2023-03-31T19:36:41;9.60;79.60
20598;DHT22;10457;48.770;11.446;2023-03-31T19:42:03;9.60;79.40
20598;DHT22;10457;48.770;11.446;2023-03-31T19:47:24;9.60;78.90
20598;DHT22;10457;48.770;11.446;2023-03-31T19:52:47;9.60;78.80
20598;DHT22;10457;48.770;11.446;2023-03-31T19:58:09;9.60;78.80
20598;DHT22;10457;48.770;11.446;2023-03-31T20:03:31;9.50;79.70
20598;DHT22;10457;48.770;11.446;2023-03-31T20:08:56;9.50;80.30
20598;DHT22;10457;48.770;11.446;2023-03-31T20:14:19;9.40;83.10
20598;DHT22;10457;48.770;11.446;2023-03-31T20:19:40;9.30;85.40
20598;DHT22;10457;48.770;11.446;2023-03-31T20:25:04;9.20;88.20
20598;DHT22;10457;48.770;11.446;2023-03-31T20:30:28;9.10;91.20
20598;DHT22;10457;48.770;11.446;2023-03-31T20:35:59;9.00;95.40
20598;DHT22;10457;48.770;11.446;2023-03-31T20:41:24;8.70;98.20
20598;DHT22;10457;48.770;11.446;2023-03-31T20:46:47;8.60;99.90
20598;DHT22;10457;48.770;11.446;2023-03-31T20:52:09;8.50;99.90
20598;DHT22;10457;48.770;11.446;2023-03-31T20:57:32;8.50;99.90
20598;DHT22;10457;48.770;11.446;2023-03-31T21:02:53;8.40;99.90
20598;DHT22;10457;48.770;11.446;2023-03-31T21:08:15;8.50;99.90
20598;DHT22;10457;48.770;11.446;2023-03-31T21:13:38;8.50;99.40
20598;DHT22;10457;48.770;11.446;2023-03-31T21:18:59;8.50;96.90
20598;DHT22;10457;48.770;11.446;2023-03-31T21:24:23;8.50;95.50
20598;DHT22;10457;48.770;11.446;2023-03-31T21:29:46;8.40;94.30
20598;DHT22;10457;48.770;11.446;2023-03-31T21:35:19;8.50;92.20
20598;DHT22;10457;48.770;11.446;2023-03-31T21:40:41;8.60;90.50
20598;DHT22;10457;48.770;11.446;2023-03-31T21:46:04;8.70;87.70
20598;DHT22;10457;48.770;11.446;2023-03-31T21:51:27;8.80;85.30
20598;DHT22;10457;48.770;11.446;2023-03-31T21:56:48;8.80;84.80
20598;DHT22;10457;48.770;11.446;2023-03-31T22:02:11;8.90;83.20
20598;DHT22;10457;48.770;11.446;2023-03-31T22:07:32;9.00;81.40
20598;DHT22;10457;48.770;11.446;2023-03-31T22:12:54;9.00;81.90
20598;DHT22;10457;48.770;11.446;2023-03-31T22:18:17;9.00;80.60
20598;DHT22;10457;48.770;11.446;2023-03-31T22:23:40;9.10;80.00
20598;DHT22;10457;48.770;11.446;2023-03-31T22:29:05;9.10;79.80
20598;DHT22;10457;48.770;11.446;2023-03-31T22:34:30;9.10;79.50
20598;DHT22;10457;48.770;11.446;2023-03-31T22:39:52;9.20;78.90
20598;DHT22;10457;48.770;11.446;2023-03-31T22:45:13;9.20;80.20
20598;DHT22;10457;48.770;11.446;2023-03-31T22:50:36;9.10;79.80
20598;DHT22;10457;48.770;11.446;2023-03-31T22:56:03;9.10;79.80
20598;DHT22;10457;48.770;11.446;2023-03-31T23:01:25;9.10;78.80
20598;DHT22;10457;48.770;11.446;2023-03-31T23:06:48;9.10;78.90
20598;DHT22;10457;48.770;11.446;2023-03-31T23:12:10;9.10;78.20
20598;DHT22;10457;48.770;11.446;2023-03-31T23:17:31;9.20;79.10
20598;DHT22;10457;48.770;11.446;2023-03-31T23:22:54;9.10;78.10
20598;DHT22;10457;48.770;11.446;2023-03-31T23:28:17;9.10;78.00
20598;DHT22;10457;48.770;11.446;2023-03-31T23:33:38;9.10;78.00
20598;DHT22;10457;48.770;11.446;2023-03-31T23:39:02;9.10;77.90
20598;DHT22;10457;48.770;11.446;2023-03-31T23:44:25;9.10;77.80
20598;DHT22;10457;48.770;11.446;2023-03-31T23:49:47;9.00;78.50
20598;DHT22;10457;48.770;11.446;2023-03-31T23:55:10;9.00;78.70
